createdAt,value
2019-03-24T00:00:57.831Z,57.40
2019-03-24T00:03:28.081Z,61.13
2019-03-24T00:05:58.148Z,56.77
2019-03-24T00:08:28.281Z,55.77
2019-03-24T00:10:58.351Z,57.67
2019-03-24T00:13:28.386Z,52.83
2019-03-24T00:15:58.399Z,60.97
2019-03-24T00:18:28.456Z,59.57
2019-03-24T00:20:58.539Z,56.03
2019-03-24T00:23:28.657Z,57.23
2019-03-24T00:25:58.729Z,59.40
2019-03-24T00:28:28.710Z,59.10
2019-03-24T00:30:59.063Z,57.93
2019-03-24T00:33:28.983Z,56.07
2019-03-24T00:35:59.115Z,65.40
2019-03-24T00:38:29.150Z,58.97
2019-03-24T00:40:59.172Z,62.63
2019-03-24T00:43:29.229Z,61.27
2019-03-24T00:45:59.284Z,58.93
2019-03-24T00:48:29.202Z,61.17
2019-03-24T00:50:59.231Z,63.43
2019-03-24T00:53:29.262Z,63.47
2019-03-24T00:55:59.335Z,60.87
2019-03-24T00:58:29.317Z,65.20
2019-03-24T01:00:59.280Z,62.60
2019-03-24T01:03:29.466Z,65.90
2019-03-24T01:06:01.699Z,61.93
2019-03-24T01:08:30.994Z,68.37
2019-03-24T01:11:01.044Z,63.00
2019-03-24T01:13:31.034Z,63.80
2019-03-24T01:16:01.028Z,64.17
2019-03-24T01:18:31.042Z,59.70
2019-03-24T01:21:01.121Z,62.23
2019-03-24T01:23:31.077Z,70.47
2019-03-24T01:26:01.235Z,61.60
2019-03-24T01:28:31.003Z,61.97
2019-03-24T01:31:00.818Z,59.80
2019-03-24T01:33:30.601Z,61.70
2019-03-24T01:36:00.423Z,61.67
2019-03-24T01:38:30.295Z,60.07
2019-03-24T01:41:00.159Z,62.20
2019-03-24T01:43:30.303Z,66.07
2019-03-24T01:46:00.212Z,59.67
2019-03-24T01:48:30.090Z,63.67
2019-03-24T01:51:00.481Z,68.17
2019-03-24T01:53:30.259Z,66.33
2019-03-24T01:56:00.080Z,61.40
2019-03-24T01:58:29.864Z,62.00
2019-03-24T02:00:59.680Z,67.90
2019-03-24T02:03:29.468Z,61.90
2019-03-24T02:05:59.243Z,63.23
2019-03-24T02:08:29.035Z,65.33
2019-03-24T02:10:58.843Z,69.03
2019-03-24T02:13:28.637Z,62.80
2019-03-24T02:16:08.800Z,63.97
2019-03-24T02:18:29.994Z,69.27
2019-03-24T02:20:59.815Z,67.07
2019-03-24T02:23:29.626Z,67.87
2019-03-24T02:25:59.564Z,60.70
2019-03-24T02:28:29.418Z,62.87
2019-03-24T02:30:59.400Z,71.90
2019-03-24T02:33:29.282Z,64.87
2019-03-24T02:35:59.170Z,67.80
2019-03-24T02:38:28.969Z,66.50
2019-03-24T02:40:58.872Z,65.33
2019-03-24T02:43:28.747Z,62.13
2019-03-24T02:45:58.693Z,68.03
2019-03-24T02:48:28.403Z,70.63
2019-03-24T02:50:58.287Z,69.67
2019-03-24T02:53:28.119Z,65.67
2019-03-24T02:55:57.947Z,67.77
2019-03-24T02:58:27.729Z,71.53
2019-03-24T03:00:57.529Z,68.03
2019-03-24T03:03:27.428Z,70.57
2019-03-24T03:05:57.338Z,75.50
2019-03-24T03:08:27.160Z,63.90
2019-03-24T03:10:57.032Z,73.90
2019-03-24T03:13:26.921Z,72.27
2019-03-24T03:15:56.808Z,71.97
2019-03-24T03:18:26.604Z,69.40
2019-03-24T03:20:56.415Z,68.70
2019-03-24T03:23:26.292Z,71.93
2019-03-24T03:25:56.164Z,70.43
2019-03-24T03:28:25.901Z,66.93
2019-03-24T03:30:55.699Z,64.23
2019-03-24T03:33:25.532Z,64.90
2019-03-24T03:35:55.394Z,65.23
2019-03-24T03:38:25.202Z,65.47
2019-03-24T03:40:55.118Z,67.27
2019-03-24T03:43:24.975Z,66.57
2019-03-24T03:45:54.796Z,70.87
2019-03-24T03:48:24.614Z,59.40
2019-03-24T03:50:54.403Z,63.97
2019-03-24T03:53:24.295Z,67.57
2019-03-24T03:55:54.104Z,60.97
2019-03-24T03:58:23.920Z,59.97
2019-03-24T04:00:53.773Z,60.00
2019-03-24T04:03:23.696Z,64.47
2019-03-24T04:05:53.569Z,58.03
2019-03-24T04:08:23.466Z,57.50
2019-03-24T04:10:53.330Z,67.57
2019-03-24T04:13:23.223Z,67.10
2019-03-24T04:15:53.087Z,62.90
2019-03-24T04:18:23.001Z,64.63
2019-03-24T04:20:52.895Z,64.30
2019-03-24T04:23:22.760Z,61.30
2019-03-24T04:25:52.603Z,60.37
2019-03-24T04:28:22.463Z,56.07
2019-03-24T04:30:52.398Z,59.43
2019-03-24T04:33:22.269Z,61.47
2019-03-24T04:35:52.148Z,59.60
2019-03-24T04:38:22.019Z,57.10
2019-03-24T04:40:51.915Z,58.20
2019-03-24T04:43:21.767Z,53.27
2019-03-24T04:45:51.694Z,54.80
2019-03-24T04:48:21.483Z,51.27
2019-03-24T04:50:51.368Z,48.90
2019-03-24T04:53:21.173Z,53.67
2019-03-24T04:55:51.091Z,48.53
2019-03-24T04:58:20.891Z,49.20
2019-03-24T05:00:50.782Z,49.43
2019-03-24T05:03:20.655Z,51.30
2019-03-24T05:05:50.995Z,48.30
2019-03-24T05:08:20.900Z,44.30
2019-03-24T05:10:50.740Z,48.67
2019-03-24T05:13:20.462Z,47.67
2019-03-24T05:15:50.492Z,47.03
2019-03-24T05:18:20.345Z,45.30
2019-03-24T05:20:50.227Z,42.83
2019-03-24T05:23:20.190Z,48.23
2019-03-24T05:25:50.008Z,45.47
2019-03-24T05:28:19.897Z,43.73
2019-03-24T05:30:49.708Z,41.83
2019-03-24T05:33:19.510Z,43.50
2019-03-24T05:35:49.386Z,46.63
2019-03-24T05:38:19.183Z,45.33
2019-03-24T05:40:48.918Z,47.07
2019-03-24T05:43:18.752Z,43.77
2019-03-24T05:45:48.655Z,44.80
2019-03-24T05:48:18.579Z,47.50
2019-03-24T05:50:48.367Z,50.90
2019-03-24T05:53:18.195Z,50.90
2019-03-24T05:55:47.996Z,52.43
2019-03-24T05:58:17.830Z,54.00
2019-03-24T06:00:47.646Z,54.50
2019-03-24T06:03:17.556Z,54.17
2019-03-24T06:05:47.381Z,55.10
2019-03-24T06:08:17.261Z,57.17
2019-03-24T06:10:47.111Z,60.73
2019-03-24T06:13:16.948Z,58.27
2019-03-24T06:15:46.854Z,60.00
2019-03-24T06:18:16.729Z,62.77
2019-03-24T06:20:46.618Z,60.70
2019-03-24T06:23:16.544Z,58.50
2019-03-24T06:25:46.332Z,65.87
2019-03-24T06:28:16.221Z,62.20
2019-03-24T06:30:46.034Z,62.07
2019-03-24T06:33:15.887Z,70.40
2019-03-24T06:35:45.723Z,59.33
2019-03-24T06:38:15.615Z,66.77
2019-03-24T06:40:45.425Z,63.33
2019-03-24T06:43:15.258Z,58.77
2019-03-24T06:45:45.230Z,60.90
2019-03-24T06:48:15.110Z,69.57
2019-03-24T06:50:44.828Z,62.90
2019-03-24T06:53:14.705Z,60.03
2019-03-24T06:55:44.597Z,63.70
2019-03-24T06:58:14.958Z,60.93
2019-03-24T07:00:44.821Z,71.27
2019-03-24T07:03:14.684Z,63.23
2019-03-24T07:05:44.512Z,62.70
2019-03-24T07:08:14.490Z,63.60
2019-03-24T07:10:44.280Z,63.50
2019-03-24T07:13:14.149Z,62.07
2019-03-24T07:15:44.008Z,59.50
2019-03-24T07:18:13.872Z,55.13
2019-03-24T07:20:43.782Z,58.30
2019-03-24T07:23:13.591Z,58.33
2019-03-24T07:25:43.384Z,60.27
2019-03-24T07:28:13.200Z,60.87
2019-03-24T07:30:43.070Z,59.70
2019-03-24T07:33:12.882Z,54.03
2019-03-24T07:35:42.698Z,56.30
2019-03-24T07:38:12.433Z,59.83
2019-03-24T07:40:42.319Z,59.97
2019-03-24T07:43:12.132Z,56.73
2019-03-24T07:45:41.993Z,56.83
2019-03-24T07:48:18.970Z,56.67
2019-03-24T07:50:43.321Z,54.17
2019-03-24T07:53:13.251Z,56.57
2019-03-24T07:55:43.103Z,56.10
2019-03-24T07:58:12.984Z,61.67
2019-03-24T08:00:42.795Z,60.60
2019-03-24T08:03:12.613Z,63.13
2019-03-24T08:05:42.565Z,57.43
2019-03-24T08:08:12.365Z,63.10
2019-03-24T08:10:42.241Z,57.27
2019-03-24T08:13:12.044Z,57.10
2019-03-24T08:15:41.868Z,54.07
2019-03-24T08:18:11.666Z,52.70
2019-03-24T08:20:41.553Z,55.07
2019-03-24T08:23:11.425Z,54.10
2019-03-24T08:25:41.349Z,70.47
2019-03-24T08:28:11.131Z,71.87
2019-03-24T08:30:40.958Z,68.50
2019-03-24T08:33:10.829Z,65.57
2019-03-24T08:35:40.559Z,68.27
2019-03-24T08:38:10.372Z,69.30
2019-03-24T08:40:40.227Z,64.37
2019-03-24T08:43:10.636Z,66.53
2019-03-24T08:45:40.880Z,67.63
2019-03-24T08:48:11.004Z,70.43
2019-03-24T08:50:41.626Z,61.43
2019-03-24T08:53:12.142Z,69.00
2019-03-24T08:55:42.646Z,71.97
2019-03-24T08:58:13.039Z,77.03
2019-03-24T09:00:43.531Z,69.90
2019-03-24T09:03:13.903Z,75.37
2019-03-24T09:05:44.210Z,62.77
2019-03-24T09:08:14.610Z,65.57
2019-03-24T09:10:45.080Z,74.17
2019-03-24T09:13:15.695Z,69.53
2019-03-24T09:15:46.215Z,66.83
2019-03-24T09:18:16.378Z,66.30
2019-03-24T09:20:46.798Z,75.13
2019-03-24T09:23:16.981Z,76.43
2019-03-24T09:25:47.440Z,77.13
2019-03-24T09:28:18.202Z,71.13
2019-03-24T09:30:48.460Z,70.30
2019-03-24T09:33:18.196Z,69.37
2019-03-24T09:35:48.080Z,72.23
2019-03-24T09:38:17.971Z,75.90
2019-03-24T09:40:47.869Z,73.43
2019-03-24T09:43:17.664Z,73.23
2019-03-24T09:45:47.526Z,64.37
2019-03-24T09:48:17.355Z,54.67
2019-03-24T09:50:47.103Z,66.37
2019-03-24T09:53:16.866Z,61.27
2019-03-24T09:55:46.612Z,67.47
2019-03-24T09:58:16.422Z,56.43
2019-03-24T10:00:46.308Z,61.53
2019-03-24T10:03:16.177Z,51.43
2019-03-24T10:05:46.002Z,59.63
2019-03-24T10:08:16.046Z,57.70
2019-03-24T10:10:45.791Z,56.90
2019-03-24T10:13:15.555Z,52.73
2019-03-24T10:15:45.314Z,52.73
2019-03-24T10:18:15.016Z,52.33
2019-03-24T10:20:44.732Z,60.67
2019-03-24T10:23:14.549Z,58.57
2019-03-24T10:25:44.360Z,63.10
2019-03-24T10:28:14.172Z,61.27
2019-03-24T10:30:43.974Z,57.13
2019-03-24T10:33:13.709Z,53.77
2019-03-24T10:35:43.471Z,47.60
2019-03-24T10:38:13.199Z,46.50
2019-03-24T10:40:42.998Z,48.33
2019-03-24T10:43:12.727Z,47.77
2019-03-24T10:45:42.441Z,47.73
2019-03-24T10:48:12.272Z,49.97
2019-03-24T10:50:42.028Z,47.23
2019-03-24T10:53:11.740Z,48.90
2019-03-24T10:55:41.549Z,47.77
2019-03-24T10:58:11.275Z,40.63
2019-03-24T11:00:43.187Z,44.27
2019-03-24T11:03:12.891Z,43.70
2019-03-24T11:05:42.703Z,37.60
2019-03-24T11:08:12.571Z,39.07
2019-03-24T11:10:42.442Z,44.83
2019-03-24T11:13:12.364Z,40.40
2019-03-24T11:15:42.123Z,43.30
2019-03-24T11:18:11.917Z,40.20
2019-03-24T11:20:41.686Z,40.97
2019-03-24T11:23:11.556Z,38.87
2019-03-24T11:25:41.322Z,41.17
2019-03-24T11:28:11.451Z,40.87
2019-03-24T11:30:41.131Z,37.93
2019-03-24T11:33:10.836Z,37.53
2019-03-24T11:35:40.608Z,32.77
2019-03-24T11:38:10.444Z,34.97
2019-03-24T11:40:40.135Z,31.30
2019-03-24T11:43:10.079Z,33.00
2019-03-24T11:45:40.008Z,29.57
2019-03-24T11:48:09.793Z,28.23
2019-03-24T11:50:39.692Z,30.17
2019-03-24T11:53:09.491Z,31.93
2019-03-24T11:55:39.435Z,32.83
2019-03-24T11:58:09.235Z,29.80
2019-03-24T12:00:40.531Z,33.67
2019-03-24T12:03:10.267Z,30.83
2019-03-24T12:05:40.535Z,35.63
2019-03-24T12:08:10.328Z,30.07
2019-03-24T12:10:40.329Z,29.63
2019-03-24T12:13:10.164Z,31.43
2019-03-24T12:15:39.979Z,32.00
2019-03-24T12:18:09.723Z,34.23
2019-03-24T12:20:39.572Z,32.37
2019-03-24T12:23:09.440Z,30.30
2019-03-24T12:25:46.939Z,26.47
2019-03-24T12:28:16.795Z,24.73
2019-03-24T12:30:46.704Z,28.07
2019-03-24T12:33:16.585Z,27.60
2019-03-24T12:35:46.442Z,27.43
2019-03-24T12:38:16.297Z,30.17
2019-03-24T12:40:46.023Z,29.40
2019-03-24T12:43:19.760Z,28.07
2019-03-24T12:45:47.345Z,32.23
2019-03-24T12:48:17.257Z,35.57
2019-03-24T12:50:47.105Z,33.27
2019-03-24T12:53:16.967Z,34.50
2019-03-24T12:55:46.992Z,33.77
2019-03-24T12:58:16.873Z,29.23
2019-03-24T13:00:46.681Z,32.30
2019-03-24T13:03:16.468Z,28.40
2019-03-24T13:05:46.389Z,31.10
2019-03-24T13:08:18.345Z,29.97
2019-03-24T13:10:48.579Z,31.27
2019-03-24T13:13:18.468Z,29.70
2019-03-24T13:15:48.292Z,31.87
2019-03-24T13:18:19.112Z,34.70
2019-03-24T13:20:48.935Z,32.00
2019-03-24T13:23:18.666Z,30.90
2019-03-24T13:25:50.460Z,30.93
2019-03-24T13:28:20.174Z,29.30
2019-03-24T13:30:50.120Z,30.20
2019-03-24T13:33:19.959Z,29.83
2019-03-24T13:35:54.948Z,32.03
2019-03-24T13:38:24.743Z,34.60
2019-03-24T13:40:54.608Z,33.50
2019-03-24T13:43:24.408Z,32.03
2019-03-24T13:45:54.180Z,32.83
2019-03-24T13:48:23.974Z,36.27
2019-03-24T13:51:12.597Z,38.30
2019-03-24T13:53:42.392Z,37.03
2019-03-24T13:56:12.214Z,38.47
2019-03-24T13:58:42.058Z,37.03
2019-03-24T14:01:12.492Z,32.60
2019-03-24T14:03:42.291Z,35.00
2019-03-24T14:06:12.095Z,32.23
2019-03-24T14:08:41.815Z,33.13
2019-03-24T14:11:11.635Z,32.40
2019-03-24T14:13:41.449Z,30.97
2019-03-24T14:16:11.337Z,32.07
2019-03-24T14:18:41.125Z,34.70
2019-03-24T14:21:11.017Z,38.07
2019-03-24T14:23:40.871Z,83.73
2019-03-24T14:26:10.607Z,107.67
2019-03-24T14:28:40.416Z,45.20
2019-03-24T14:31:10.161Z,38.60
2019-03-24T14:33:40.016Z,32.63
2019-03-24T14:36:09.828Z,34.97
2019-03-24T14:38:39.686Z,30.83
2019-03-24T14:41:09.592Z,33.27
2019-03-24T14:43:39.444Z,32.27
2019-03-24T14:46:09.260Z,29.33
2019-03-24T14:48:39.055Z,38.53
2019-03-24T14:51:08.938Z,31.20
2019-03-24T14:53:38.723Z,27.30
2019-03-24T14:56:08.537Z,28.87
2019-03-24T14:58:38.252Z,29.97
2019-03-24T15:01:08.063Z,27.37
2019-03-24T15:03:37.864Z,28.77
2019-03-24T15:06:07.805Z,23.10
2019-03-24T15:08:37.615Z,25.83
2019-03-24T15:11:07.489Z,22.57
2019-03-24T15:13:37.262Z,20.83
2019-03-24T15:16:07.076Z,22.70
2019-03-24T15:18:37.008Z,21.40
2019-03-24T15:21:06.802Z,22.37
2019-03-24T15:23:36.726Z,22.57
2019-03-24T15:26:06.581Z,22.50
2019-03-24T15:28:36.320Z,22.03
2019-03-24T15:31:06.187Z,21.70
2019-03-24T15:33:36.008Z,25.20
2019-03-24T15:36:05.735Z,25.13
2019-03-24T15:38:35.559Z,29.73
2019-03-24T15:41:05.431Z,22.13
2019-03-24T15:43:35.253Z,28.70
2019-03-24T15:46:05.650Z,24.20
2019-03-24T15:48:35.464Z,26.43
2019-03-24T15:51:16.049Z,33.40
2019-03-24T15:53:36.726Z,24.90
2019-03-24T15:56:06.454Z,23.50
2019-03-24T15:58:36.372Z,23.63
2019-03-24T16:01:06.308Z,22.47
2019-03-24T16:03:36.055Z,23.53
2019-03-24T16:06:05.863Z,21.93
2019-03-24T16:08:35.680Z,24.80
2019-03-24T16:11:05.417Z,17.60
2019-03-24T16:13:35.329Z,21.00
2019-03-24T16:16:05.196Z,19.50
2019-03-24T16:18:35.034Z,19.40
2019-03-24T16:21:04.928Z,20.37
2019-03-24T16:23:34.765Z,18.87
2019-03-24T16:26:04.587Z,23.90
2019-03-24T16:28:34.416Z,24.67
2019-03-24T16:31:04.220Z,21.23
2019-03-24T16:33:34.008Z,20.37
2019-03-24T16:36:03.812Z,22.27
2019-03-24T16:38:33.540Z,21.67
2019-03-24T16:41:03.366Z,22.23
2019-03-24T16:43:33.256Z,19.93
2019-03-24T16:46:03.121Z,21.77
2019-03-24T16:48:37.070Z,20.40
2019-03-24T16:51:04.570Z,26.90
2019-03-24T16:53:34.469Z,26.57
2019-03-24T16:56:04.334Z,25.50
2019-03-24T16:58:34.156Z,26.90
2019-03-24T17:01:03.971Z,26.50
2019-03-24T17:03:33.863Z,25.17
2019-03-24T17:06:03.681Z,25.47
2019-03-24T17:08:33.579Z,28.23
2019-03-24T17:11:03.307Z,26.40
2019-03-24T17:13:33.153Z,25.70
2019-03-24T17:16:03.055Z,27.67
2019-03-24T17:18:32.840Z,29.27
2019-03-24T17:21:02.630Z,33.17
2019-03-24T17:23:32.543Z,32.20
2019-03-24T17:26:02.359Z,33.43
2019-03-24T17:28:32.179Z,38.03
2019-03-24T17:31:01.989Z,34.13
2019-03-24T17:33:34.097Z,41.93
2019-03-24T17:36:03.654Z,48.63
2019-03-24T17:38:33.440Z,38.03
2019-03-24T17:41:03.248Z,38.70
2019-03-24T17:43:33.112Z,44.20
2019-03-24T17:46:02.948Z,38.37
2019-03-24T17:48:32.662Z,74.10
2019-03-24T17:51:02.485Z,56.97
2019-03-24T17:53:32.405Z,33.73
2019-03-24T17:56:02.321Z,37.10
2019-03-24T17:58:32.236Z,33.37
2019-03-24T18:01:02.117Z,30.97
2019-03-24T18:03:31.923Z,32.17
2019-03-24T18:06:01.834Z,30.97
2019-03-24T18:08:31.626Z,34.50
2019-03-24T18:11:01.439Z,33.80
2019-03-24T18:13:31.280Z,29.60
2019-03-24T18:16:01.270Z,28.43
2019-03-24T18:18:32.044Z,32.47
2019-03-24T18:21:01.848Z,24.60
2019-03-24T18:23:31.716Z,28.53
2019-03-24T18:26:01.551Z,27.70
2019-03-24T18:28:31.387Z,27.03
2019-03-24T18:31:01.198Z,20.03
2019-03-24T18:33:31.111Z,27.50
2019-03-24T18:36:00.924Z,24.03
2019-03-24T18:38:30.779Z,22.07
2019-03-24T18:41:00.589Z,23.90
2019-03-24T18:43:30.382Z,19.70
2019-03-24T18:46:00.267Z,22.90
2019-03-24T18:48:30.077Z,21.73
2019-03-24T18:50:59.967Z,21.60
2019-03-24T18:53:29.847Z,19.73
2019-03-24T18:55:59.754Z,19.80
2019-03-24T18:58:31.964Z,18.77
2019-03-24T19:01:01.189Z,14.63
2019-03-24T19:03:31.056Z,20.20
2019-03-24T19:06:00.912Z,21.00
2019-03-24T19:08:30.812Z,20.27
2019-03-24T19:11:00.660Z,22.70
2019-03-24T19:13:30.464Z,18.73
2019-03-24T19:16:00.330Z,18.40
2019-03-24T19:18:30.076Z,19.90
2019-03-24T19:20:59.879Z,19.10
2019-03-24T19:23:29.776Z,17.50
2019-03-24T19:25:59.642Z,20.57
2019-03-24T19:28:29.455Z,17.07
2019-03-24T19:30:59.270Z,14.37
2019-03-24T19:33:29.741Z,15.80
2019-03-24T19:35:59.789Z,13.17
2019-03-24T19:38:33.636Z,15.53
2019-03-24T19:41:03.629Z,19.83
2019-03-24T19:43:33.375Z,15.00
2019-03-24T19:46:03.160Z,16.40
2019-03-24T19:48:33.080Z,15.53
2019-03-24T19:51:02.893Z,14.13
2019-03-24T19:53:32.840Z,14.10
2019-03-24T19:56:02.630Z,12.80
2019-03-24T19:58:32.462Z,13.97
2019-03-24T20:01:02.283Z,12.27
2019-03-24T20:03:31.988Z,17.10
2019-03-24T20:06:01.900Z,10.90
2019-03-24T20:08:31.715Z,11.70
2019-03-24T20:11:01.608Z,16.20
2019-03-24T20:13:31.447Z,14.20
2019-03-24T20:16:01.261Z,9.93
2019-03-24T20:18:31.141Z,15.23
2019-03-24T20:21:00.938Z,30.47
2019-03-24T20:23:30.646Z,47.17
2019-03-24T20:26:00.455Z,11.97
2019-03-24T20:28:30.199Z,13.67
2019-03-24T20:31:00.020Z,15.23
2019-03-24T20:33:32.355Z,29.30
2019-03-24T20:36:01.361Z,20.30
2019-03-24T20:38:31.219Z,16.10
2019-03-24T20:41:01.065Z,12.47
2019-03-24T20:43:31.020Z,15.97
2019-03-24T20:46:01.067Z,9.50
2019-03-24T20:48:31.201Z,10.90
2019-03-24T20:51:01.214Z,11.40
2019-03-24T20:53:31.686Z,7.50
2019-03-24T20:56:01.869Z,12.30
2019-03-24T20:58:33.548Z,12.93
2019-03-24T21:01:03.810Z,10.30
2019-03-24T21:03:34.271Z,12.47
2019-03-24T21:06:04.561Z,10.43
2019-03-24T21:08:34.751Z,8.50
2019-03-24T21:11:04.962Z,13.77
2019-03-24T21:13:36.405Z,12.23
2019-03-24T21:16:07.865Z,13.63
2019-03-24T21:18:39.220Z,11.47
2019-03-24T21:21:10.109Z,12.33
2019-03-24T21:23:41.100Z,13.40
2019-03-24T21:26:11.395Z,12.70
2019-03-24T21:28:42.270Z,8.83
2019-03-24T21:31:12.280Z,9.43
2019-03-24T21:33:42.189Z,14.33
2019-03-24T21:36:12.687Z,9.60
2019-03-24T21:38:44.494Z,12.50
2019-03-24T21:41:15.349Z,15.17
2019-03-24T21:43:45.468Z,9.73
2019-03-24T21:46:15.636Z,10.30
2019-03-24T21:48:45.860Z,12.87
2019-03-24T21:51:15.905Z,9.90
2019-03-24T21:53:45.907Z,12.80
2019-03-24T21:56:16.139Z,13.00
2019-03-24T21:58:46.047Z,12.27
2019-03-24T22:01:16.206Z,11.87
2019-03-24T22:03:46.220Z,12.57
2019-03-24T22:06:16.380Z,10.53
2019-03-24T22:08:46.455Z,8.97
2019-03-24T22:11:16.387Z,12.90
2019-03-24T22:13:46.247Z,10.93
2019-03-24T22:16:17.981Z,10.60
2019-03-24T22:18:49.662Z,8.67
2019-03-24T22:21:22.134Z,10.23
2019-03-24T22:23:53.618Z,11.23
2019-03-24T22:26:25.519Z,10.53
2019-03-24T22:28:57.159Z,13.47
2019-03-24T22:31:29.104Z,15.03
2019-03-24T22:34:01.063Z,11.33
2019-03-24T22:36:33.549Z,14.83
2019-03-24T22:39:06.572Z,8.23
2019-03-24T22:41:38.146Z,10.33
2019-03-24T22:44:09.811Z,14.23
2019-03-24T22:46:41.053Z,10.80
2019-03-24T22:49:12.588Z,11.83
2019-03-24T22:51:42.287Z,7.97
2019-03-24T22:54:12.124Z,11.93
2019-03-24T22:56:42.009Z,13.47
2019-03-24T22:59:11.875Z,9.50
2019-03-24T23:01:41.718Z,10.70
2019-03-24T23:04:11.563Z,13.87
2019-03-24T23:06:41.375Z,7.83
2019-03-24T23:09:11.383Z,10.73
2019-03-24T23:11:41.292Z,13.10
2019-03-24T23:14:11.375Z,19.17
2019-03-24T23:16:42.137Z,10.73
2019-03-24T23:19:11.922Z,14.03
2019-03-24T23:21:41.643Z,9.93
2019-03-24T23:24:15.684Z,12.90
2019-03-24T23:26:42.983Z,10.17
2019-03-24T23:29:12.777Z,11.37
2019-03-24T23:31:42.571Z,11.93
2019-03-24T23:34:12.271Z,9.73
2019-03-24T23:36:42.071Z,9.13
2019-03-24T23:39:11.776Z,11.17
2019-03-24T23:41:41.519Z,8.57
2019-03-24T23:44:11.272Z,17.53
2019-03-24T23:46:41.092Z,10.30
2019-03-24T23:49:10.912Z,12.10
2019-03-24T23:51:40.667Z,10.07
2019-03-24T23:54:10.448Z,14.33
2019-03-24T23:56:40.472Z,10.53
2019-03-24T23:59:10.301Z,13.10
